createdAt,value
2023-05-21T00:01:08.029Z,61.06
2023-05-21T00:03:36.242Z,60.30
2023-05-21T00:06:03.902Z,60.18
2023-05-21T00:08:31.195Z,58.25
2023-05-21T00:10:57.958Z,58.09
2023-05-21T00:13:24.574Z,59.57
2023-05-21T00:15:51.542Z,60.96
2023-05-21T00:18:18.290Z,63.77
2023-05-21T00:20:45.861Z,64.59
2023-05-21T00:23:12.528Z,63.14
2023-05-21T00:25:39.271Z,61.77
2023-05-21T00:28:05.841Z,61.15
2023-05-21T00:30:32.446Z,60.17
2023-05-21T00:33:02.960Z,58.54
2023-05-21T00:35:30.117Z,59.13
2023-05-21T00:37:57.335Z,60.64
2023-05-21T00:40:24.270Z,63.19
2023-05-21T00:42:50.917Z,63.46
2023-05-21T00:45:17.570Z,62.38
2023-05-21T00:47:45.158Z,61.30
2023-05-21T00:50:11.974Z,60.30
2023-05-21T00:52:41.935Z,60.04
2023-05-21T00:55:09.984Z,58.62
2023-05-21T00:57:37.202Z,58.63
2023-05-21T01:00:09.051Z,60.01
2023-05-21T01:02:37.465Z,62.86
2023-05-21T01:05:06.180Z,64.33
2023-05-21T01:07:39.043Z,63.09
2023-05-21T01:10:08.518Z,62.21
2023-05-21T01:12:37.940Z,61.53
2023-05-21T01:15:05.533Z,61.26
2023-05-21T01:17:34.398Z,60.80
2023-05-21T01:20:02.128Z,60.33
2023-05-21T01:22:32.523Z,59.09
2023-05-21T01:25:05.218Z,59.06
2023-05-21T01:27:33.705Z,60.85
2023-05-21T01:30:00.877Z,64.80
2023-05-21T01:33:04.046Z,65.66
2023-05-21T01:35:53.943Z,64.28
2023-05-21T01:38:28.796Z,63.06
2023-05-21T01:41:00.360Z,62.12
2023-05-21T01:43:29.957Z,61.35
2023-05-21T01:45:57.361Z,60.63
2023-05-21T01:48:27.344Z,60.85
2023-05-21T01:50:55.896Z,58.68
2023-05-21T01:53:22.616Z,58.14
2023-05-21T01:55:49.595Z,60.06
2023-05-21T01:58:17.216Z,64.00
2023-05-21T02:00:45.486Z,64.97
2023-05-21T02:03:13.743Z,64.24
2023-05-21T02:05:41.155Z,62.77
2023-05-21T02:08:08.532Z,61.91
2023-05-21T02:10:36.386Z,61.44
2023-05-21T02:13:03.440Z,61.55
2023-05-21T02:18:46.471Z,60.97
2023-05-21T02:21:13.282Z,60.52
2023-05-21T02:23:41.835Z,60.21
2023-05-21T02:26:08.687Z,60.16
2023-05-21T02:28:36.409Z,60.43
2023-05-21T02:31:03.242Z,60.39
2023-05-21T02:33:29.868Z,60.41
2023-05-21T02:35:56.503Z,60.19
2023-05-21T02:38:25.887Z,59.94
2023-05-21T02:40:53.194Z,59.98
2023-05-21T02:43:20.176Z,59.84
2023-05-21T02:45:46.822Z,59.92
2023-05-21T02:48:14.402Z,59.92
2023-05-21T02:50:41.314Z,60.13
2023-05-21T02:53:08.181Z,60.25
2023-05-21T02:55:36.182Z,60.44
2023-05-21T02:58:02.979Z,60.42
2023-05-21T03:00:29.568Z,60.61
2023-05-21T03:02:56.719Z,60.30
2023-05-21T03:05:24.425Z,60.16
2023-05-21T03:07:51.469Z,60.24
2023-05-21T03:10:18.225Z,60.35
2023-05-21T03:12:44.850Z,59.81
2023-05-21T03:15:14.880Z,59.93
2023-05-21T03:17:44.433Z,59.92
2023-05-21T03:20:17.140Z,59.95
2023-05-21T03:22:46.670Z,59.58
2023-05-21T03:25:13.512Z,58.36
2023-05-21T03:27:40.420Z,58.51
2023-05-21T03:30:13.370Z,60.01
2023-05-21T03:32:54.243Z,62.89
2023-05-21T03:35:20.978Z,63.60
2023-05-21T03:37:47.827Z,62.22
2023-05-21T03:40:14.610Z,61.13
2023-05-21T03:42:41.307Z,60.80
2023-05-21T03:45:08.484Z,60.17
2023-05-21T03:48:02.050Z,58.53
2023-05-21T03:50:29.914Z,59.16
2023-05-21T03:52:57.758Z,60.65
2023-05-21T03:55:24.314Z,63.46
2023-05-21T03:57:50.890Z,63.07
2023-05-21T04:00:17.900Z,61.53
2023-05-21T04:02:47.003Z,59.64
2023-05-21T04:05:15.983Z,56.94
2023-05-21T04:07:43.070Z,57.35
2023-05-21T04:10:09.831Z,58.59
2023-05-21T04:12:36.456Z,59.77
2023-05-21T04:15:04.647Z,60.58
2023-05-21T04:17:31.372Z,60.91
2023-05-21T04:19:58.017Z,62.88
2023-05-21T04:22:26.723Z,60.69
2023-05-21T04:24:54.662Z,59.83
2023-05-21T04:27:26.103Z,55.62
2023-05-21T04:29:54.821Z,56.46
2023-05-21T04:32:22.163Z,57.51
2023-05-21T04:34:48.777Z,57.09
2023-05-21T04:37:17.954Z,57.34
2023-05-21T04:39:45.544Z,58.06
2023-05-21T04:42:12.334Z,58.75
2023-05-21T04:44:40.454Z,58.73
2023-05-21T04:47:07.991Z,58.53
2023-05-21T04:49:36.037Z,58.47
2023-05-21T04:52:02.687Z,58.47
2023-05-21T04:54:29.293Z,59.29
2023-05-21T04:56:55.931Z,59.26
2023-05-21T04:59:22.901Z,58.86
2023-05-21T05:01:49.590Z,59.18
2023-05-21T05:04:16.328Z,58.31
2023-05-21T05:06:43.042Z,57.64
2023-05-21T05:09:09.682Z,58.97
2023-05-21T05:11:36.501Z,57.92
2023-05-21T05:14:03.911Z,57.61
2023-05-21T05:16:31.325Z,57.68
2023-05-21T05:18:58.026Z,57.15
2023-05-21T05:21:25.130Z,57.44
2023-05-21T05:23:52.046Z,57.16
2023-05-21T05:26:19.961Z,57.48
2023-05-21T05:28:46.859Z,57.31
2023-05-21T05:31:14.055Z,58.28
2023-05-21T05:33:42.326Z,57.92
2023-05-21T05:36:09.004Z,56.42
2023-05-21T05:38:36.218Z,54.99
2023-05-21T05:41:03.050Z,54.54
2023-05-21T05:43:29.712Z,55.01
2023-05-21T05:45:57.745Z,55.00
2023-05-21T05:48:24.419Z,55.45
2023-05-21T05:50:54.786Z,56.23
2023-05-21T05:53:22.092Z,56.87
2023-05-21T05:55:48.679Z,56.78
2023-05-21T05:58:15.488Z,55.75
2023-05-21T06:00:49.552Z,56.19
2023-05-21T06:03:16.309Z,55.36
2023-05-21T06:05:43.214Z,54.88
2023-05-21T06:08:10.308Z,53.72
2023-05-21T06:10:36.877Z,54.40
2023-05-21T06:13:03.526Z,54.91
2023-05-21T06:15:30.332Z,54.69
2023-05-21T06:17:57.020Z,54.74
2023-05-21T06:20:23.755Z,52.94
2023-05-21T06:22:50.522Z,52.92
2023-05-21T06:25:18.290Z,52.61
2023-05-21T06:27:44.985Z,53.09
2023-05-21T06:30:17.439Z,53.52
2023-05-21T06:32:44.599Z,52.94
2023-05-21T06:35:11.346Z,53.15
2023-05-21T06:37:38.911Z,53.16
2023-05-21T06:40:06.551Z,51.99
2023-05-21T06:42:34.071Z,50.72
2023-05-21T06:45:26.572Z,50.37
2023-05-21T06:47:58.097Z,52.43
2023-05-21T06:50:24.798Z,51.67
2023-05-21T06:52:51.672Z,51.61
2023-05-21T06:55:18.330Z,52.08
2023-05-21T06:58:01.088Z,51.83
2023-05-21T07:00:27.880Z,49.69
2023-05-21T07:02:54.671Z,45.73
2023-05-21T07:05:21.331Z,40.07
2023-05-21T07:07:47.971Z,38.67
2023-05-21T07:10:14.587Z,35.37
2023-05-21T07:12:41.967Z,33.24
2023-05-21T07:15:09.695Z,31.65
2023-05-21T07:17:37.524Z,29.12
2023-05-21T07:20:07.969Z,27.84
2023-05-21T07:22:34.970Z,25.93
2023-05-21T07:25:01.896Z,25.08
2023-05-21T07:27:28.622Z,23.74
2023-05-21T07:29:55.877Z,22.83
2023-05-21T07:32:22.906Z,22.82
2023-05-21T07:34:49.574Z,22.27
2023-05-21T07:37:16.199Z,20.66
2023-05-21T07:39:42.831Z,21.10
2023-05-21T07:42:10.972Z,22.52
2023-05-21T07:44:37.736Z,20.99
2023-05-21T07:47:05.018Z,18.50
2023-05-21T07:49:32.129Z,20.04
2023-05-21T07:51:58.957Z,17.31
2023-05-21T07:54:26.416Z,18.09
2023-05-21T07:56:53.506Z,19.17
2023-05-21T07:59:45.718Z,18.33
2023-05-21T08:02:12.402Z,17.28
2023-05-21T08:04:41.097Z,17.12
2023-05-21T08:07:09.888Z,16.55
2023-05-21T08:09:36.884Z,16.70
2023-05-21T08:12:04.397Z,17.30
2023-05-21T08:14:31.161Z,16.74
2023-05-21T08:16:58.469Z,15.95
2023-05-21T08:19:25.127Z,15.74
2023-05-21T08:21:52.950Z,15.56
2023-05-21T08:24:20.494Z,15.52
2023-05-21T08:26:49.586Z,15.85
2023-05-21T08:29:16.319Z,15.21
2023-05-21T08:31:43.138Z,15.92
2023-05-21T08:34:09.862Z,16.29
2023-05-21T08:36:47.068Z,15.78
2023-05-21T08:39:32.822Z,15.53
2023-05-21T08:42:08.439Z,15.34
2023-05-21T08:44:39.267Z,15.44
2023-05-21T08:47:10.697Z,15.74
2023-05-21T08:49:37.543Z,15.42
2023-05-21T08:52:06.282Z,14.51
2023-05-21T08:54:33.675Z,14.55
2023-05-21T08:57:02.604Z,14.42
2023-05-21T08:59:29.277Z,15.38
2023-05-21T09:01:57.705Z,15.08
2023-05-21T09:04:29.128Z,15.31
2023-05-21T09:06:58.063Z,14.42
2023-05-21T09:09:57.681Z,14.88
2023-05-21T09:12:28.588Z,14.96
2023-05-21T09:14:58.368Z,15.40
2023-05-21T09:17:29.308Z,15.10
2023-05-21T09:20:15.984Z,15.29
2023-05-21T09:22:49.025Z,14.96
2023-05-21T09:25:30.017Z,15.13
2023-05-21T09:27:59.990Z,14.03
2023-05-21T09:30:30.545Z,14.73
2023-05-21T09:33:00.262Z,15.10
2023-05-21T09:35:27.059Z,13.82
2023-05-21T09:37:54.051Z,13.68
2023-05-21T09:40:22.686Z,13.57
2023-05-21T09:42:51.372Z,14.07
2023-05-21T09:45:22.592Z,13.63
2023-05-21T09:47:51.039Z,13.66
2023-05-21T09:50:31.571Z,14.07
2023-05-21T09:52:58.640Z,14.44
2023-05-21T09:55:26.992Z,14.32
2023-05-21T09:57:53.734Z,14.70
2023-05-21T10:00:27.285Z,14.48
2023-05-21T10:02:55.838Z,15.42
2023-05-21T10:05:26.429Z,15.30
2023-05-21T10:07:56.335Z,15.42
2023-05-21T10:10:23.796Z,14.06
2023-05-21T10:13:03.761Z,15.02
2023-05-21T10:15:35.378Z,14.25
2023-05-21T10:18:03.662Z,14.68
2023-05-21T10:20:30.880Z,14.95
2023-05-21T10:22:59.060Z,14.39
2023-05-21T10:25:26.547Z,14.33
2023-05-21T10:27:56.085Z,14.12
2023-05-21T10:30:26.987Z,14.78
2023-05-21T10:32:56.094Z,14.25
2023-05-21T10:35:23.079Z,14.72
2023-05-21T10:37:52.168Z,14.10
2023-05-21T10:40:18.680Z,13.94
2023-05-21T10:43:02.630Z,13.82
2023-05-21T10:45:50.984Z,14.28
2023-05-21T10:48:48.551Z,14.61
2023-05-21T10:51:50.116Z,14.69
2023-05-21T10:54:22.878Z,14.74
2023-05-21T10:57:08.863Z,14.15
2023-05-21T10:59:43.272Z,14.99
2023-05-21T11:02:12.925Z,15.37
2023-05-21T11:04:43.295Z,15.49
2023-05-21T11:07:12.032Z,15.26
2023-05-21T11:09:38.959Z,15.02
2023-05-21T11:12:08.151Z,15.69
2023-05-21T11:14:39.645Z,15.29
2023-05-21T11:17:06.717Z,15.74
2023-05-21T11:19:39.888Z,15.34
2023-05-21T11:22:27.089Z,15.17
2023-05-21T11:24:55.776Z,14.72
2023-05-21T11:27:37.526Z,15.25
2023-05-21T11:30:24.431Z,15.74
2023-05-21T11:33:13.894Z,15.83
2023-05-21T11:35:49.934Z,16.25
2023-05-21T11:38:18.178Z,16.32
2023-05-21T11:40:55.303Z,15.70
2023-05-21T11:43:22.331Z,15.14
2023-05-21T11:45:52.312Z,15.79
2023-05-21T11:48:26.876Z,15.82
2023-05-21T11:50:54.532Z,15.73
2023-05-21T11:53:21.218Z,16.10
2023-05-21T11:55:47.963Z,15.93
2023-05-21T11:58:16.565Z,16.80
2023-05-21T12:00:43.362Z,16.17
2023-05-21T12:03:13.947Z,15.69
2023-05-21T12:05:48.179Z,15.29
2023-05-21T12:08:25.525Z,16.45
2023-05-21T12:11:00.013Z,16.62
2023-05-21T12:13:27.136Z,17.13
2023-05-21T12:15:56.580Z,17.30
2023-05-21T12:18:23.293Z,18.05
2023-05-21T12:20:52.026Z,17.94
2023-05-21T12:23:25.752Z,17.50
2023-05-21T12:25:53.820Z,17.75
2023-05-21T12:28:22.082Z,18.17
2023-05-21T12:30:48.754Z,18.11
2023-05-21T12:33:17.996Z,18.40
2023-05-21T12:35:50.019Z,18.62
2023-05-21T12:38:17.015Z,18.53
2023-05-21T12:40:45.494Z,18.07
2023-05-21T12:43:12.475Z,19.05
2023-05-21T12:45:42.204Z,18.77
2023-05-21T12:48:09.422Z,18.38
2023-05-21T12:50:40.483Z,17.77
2023-05-21T12:53:09.379Z,18.38
2023-05-21T12:55:36.050Z,18.60
2023-05-21T12:58:05.631Z,19.31
2023-05-21T13:00:33.126Z,19.46
2023-05-21T13:03:01.251Z,19.79
2023-05-21T13:05:28.061Z,20.59
2023-05-21T13:07:54.621Z,21.07
2023-05-21T13:10:21.867Z,20.68
2023-05-21T13:12:48.554Z,20.93
2023-05-21T13:15:18.652Z,20.95
2023-05-21T13:17:46.858Z,20.91
2023-05-21T13:20:17.608Z,20.81
2023-05-21T13:22:48.878Z,21.04
2023-05-21T13:25:20.237Z,21.88
2023-05-21T13:27:48.940Z,22.22
2023-05-21T13:30:16.148Z,21.91
2023-05-21T13:32:43.731Z,22.59
2023-05-21T13:35:13.348Z,22.01
2023-05-21T13:37:40.803Z,21.90
2023-05-21T13:40:11.119Z,21.86
2023-05-21T13:42:41.277Z,24.11
2023-05-21T13:45:10.557Z,24.17
2023-05-21T13:47:40.242Z,24.47
2023-05-21T13:50:09.100Z,24.38
2023-05-21T13:52:36.380Z,24.29
2023-05-21T13:55:03.679Z,24.54
2023-05-21T13:57:30.963Z,24.66
2023-05-21T13:59:58.732Z,24.83
2023-05-21T14:02:26.536Z,25.17
2023-05-21T14:04:53.789Z,26.27
2023-05-21T14:07:20.585Z,25.92
2023-05-21T14:09:47.750Z,25.70
2023-05-21T14:12:14.377Z,26.37
2023-05-21T14:14:41.530Z,27.33
2023-05-21T14:17:08.446Z,26.84
2023-05-21T14:19:35.186Z,26.88
2023-05-21T14:22:02.125Z,26.95
2023-05-21T14:24:28.819Z,27.56
2023-05-21T14:26:55.538Z,28.65
2023-05-21T14:29:22.188Z,29.37
2023-05-21T14:31:48.858Z,28.46
2023-05-21T14:34:15.536Z,28.01
2023-05-21T14:36:42.192Z,28.07
2023-05-21T14:39:08.779Z,28.98
2023-05-21T14:41:39.702Z,29.13
2023-05-21T14:44:06.555Z,28.12
2023-05-21T14:46:33.281Z,27.73
2023-05-21T14:49:00.689Z,27.88
2023-05-21T14:51:27.499Z,28.27
2023-05-21T14:53:54.242Z,28.89
2023-05-21T14:56:22.112Z,29.23
2023-05-21T14:58:48.898Z,29.68
2023-05-21T15:01:15.581Z,28.76
2023-05-21T15:03:42.299Z,28.40
2023-05-21T15:06:09.179Z,29.26
2023-05-21T15:08:35.886Z,29.52
2023-05-21T15:11:02.583Z,29.18
2023-05-21T15:13:29.594Z,28.87
2023-05-21T15:15:56.422Z,28.54
2023-05-21T15:18:24.757Z,29.21
2023-05-21T15:20:51.895Z,29.74
2023-05-21T15:23:18.647Z,29.45
2023-05-21T15:25:45.729Z,29.23
2023-05-21T15:28:13.005Z,30.37
2023-05-21T15:30:40.281Z,30.52
2023-05-21T15:33:07.007Z,30.98
2023-05-21T15:35:35.549Z,30.97
2023-05-21T15:38:02.841Z,30.46
2023-05-21T15:40:29.645Z,30.81
2023-05-21T15:42:56.369Z,31.14
2023-05-21T15:45:25.300Z,31.29
2023-05-21T15:47:51.954Z,31.38
2023-05-21T15:50:18.785Z,31.59
2023-05-21T15:52:45.388Z,31.71
2023-05-21T15:55:12.041Z,31.79
2023-05-21T15:57:38.688Z,31.71
2023-05-21T16:00:06.297Z,31.70
2023-05-21T16:02:35.576Z,31.46
2023-05-21T16:05:02.461Z,31.56
2023-05-21T16:07:29.057Z,32.03
2023-05-21T16:09:55.702Z,32.00
2023-05-21T16:12:22.545Z,31.65
2023-05-21T16:14:52.355Z,31.34
2023-05-21T16:17:21.626Z,31.93
2023-05-21T16:19:48.370Z,31.93
2023-05-21T16:22:15.180Z,32.41
2023-05-21T16:24:41.777Z,33.54
2023-05-21T16:27:08.438Z,33.22
2023-05-21T16:29:35.303Z,33.22
2023-05-21T16:32:02.013Z,33.62
2023-05-21T16:34:28.636Z,33.48
2023-05-21T16:36:55.403Z,34.00
2023-05-21T16:39:22.540Z,33.99
2023-05-21T16:41:49.208Z,33.41
2023-05-21T16:44:15.967Z,33.76
2023-05-21T16:46:42.794Z,33.54
2023-05-21T16:49:09.475Z,34.30
2023-05-21T16:51:36.295Z,34.84
2023-05-21T16:54:04.775Z,34.94
2023-05-21T16:56:31.523Z,35.04
2023-05-21T16:58:58.299Z,35.03
2023-05-21T17:01:25.095Z,34.84
2023-05-21T17:03:51.920Z,35.31
2023-05-21T17:06:18.669Z,35.09
2023-05-21T17:08:45.482Z,35.62
2023-05-21T17:11:12.125Z,36.30
2023-05-21T17:13:38.716Z,36.43
2023-05-21T17:16:05.504Z,36.80
2023-05-21T17:18:32.259Z,36.70
2023-05-21T17:20:59.096Z,37.41
2023-05-21T17:23:25.728Z,37.54
2023-05-21T17:25:52.674Z,37.88
2023-05-21T17:28:19.415Z,38.49
2023-05-21T17:30:48.700Z,38.52
2023-05-21T17:33:16.373Z,38.53
2023-05-21T17:35:43.357Z,39.28
2023-05-21T17:38:10.469Z,39.48
2023-05-21T17:40:37.238Z,39.45
2023-05-21T17:43:05.100Z,39.94
2023-05-21T17:45:31.947Z,40.00
2023-05-21T17:48:00.466Z,40.20
2023-05-21T17:50:28.564Z,40.20
2023-05-21T17:52:55.534Z,40.89
2023-05-21T17:55:22.188Z,40.91
2023-05-21T17:57:48.882Z,40.95
2023-05-21T18:00:15.795Z,41.22
2023-05-21T18:02:42.502Z,41.83
2023-05-21T18:05:09.330Z,42.14
2023-05-21T18:07:37.564Z,43.44
2023-05-21T18:10:04.528Z,44.82
2023-05-21T18:12:31.204Z,44.59
2023-05-21T18:14:58.465Z,44.82
2023-05-21T18:17:25.340Z,46.70
2023-05-21T18:19:52.015Z,46.65
2023-05-21T18:22:18.867Z,48.02
2023-05-21T18:24:46.312Z,47.68
2023-05-21T18:27:13.580Z,47.94
2023-05-21T18:29:40.387Z,48.35
2023-05-21T18:32:07.728Z,49.73
2023-05-21T18:34:34.567Z,49.91
2023-05-21T18:37:01.205Z,49.13
2023-05-21T18:39:28.141Z,49.99
2023-05-21T18:42:11.465Z,50.81
2023-05-21T18:44:38.784Z,51.01
2023-05-21T18:47:06.099Z,52.42
2023-05-21T18:49:35.293Z,52.83
2023-05-21T18:52:01.990Z,52.88
2023-05-21T18:54:28.618Z,52.73
2023-05-21T18:56:55.269Z,52.79
2023-05-21T18:59:21.872Z,53.57
2023-05-21T19:01:48.536Z,54.07
2023-05-21T19:04:16.271Z,54.70
2023-05-21T19:06:43.087Z,55.24
2023-05-21T19:09:09.721Z,56.05
2023-05-21T19:11:37.485Z,57.40
2023-05-21T19:14:04.969Z,58.11
2023-05-21T19:16:31.650Z,58.40
2023-05-21T19:18:58.840Z,59.04
2023-05-21T19:21:25.861Z,59.48
2023-05-21T19:23:53.602Z,59.73
2023-05-21T19:26:24.268Z,62.21
2023-05-21T19:28:53.884Z,63.71
2023-05-21T19:31:21.959Z,62.25
2023-05-21T19:33:48.969Z,60.76
2023-05-21T19:36:16.045Z,58.27
2023-05-21T19:38:50.210Z,57.37
2023-05-21T19:41:18.691Z,57.98
2023-05-21T19:43:46.135Z,58.90
2023-05-21T19:46:13.545Z,59.75
2023-05-21T19:48:40.983Z,62.35
2023-05-21T19:51:07.859Z,64.00
2023-05-21T19:53:34.937Z,62.15
2023-05-21T19:56:01.694Z,60.74
2023-05-21T19:58:30.318Z,58.84
2023-05-21T20:00:59.380Z,57.89
2023-05-21T20:03:26.649Z,58.90
2023-05-21T20:05:53.620Z,60.15
2023-05-21T20:08:20.563Z,62.56
2023-05-21T20:10:51.437Z,63.96
2023-05-21T20:13:19.682Z,62.81
2023-05-21T20:15:48.001Z,61.39
2023-05-21T20:18:15.461Z,60.61
2023-05-21T20:20:43.185Z,60.19
2023-05-21T20:23:10.092Z,58.29
